Time;durP1;ratioP1;P1;durP2;ratioP2;P2;SDS_P1;SDS_P2;PMS_P1;PMS_P2;Temp;Humidity;BMP_temperature;BMP_pressure;BME280_temperature;BME280_humidity;BME280_pressure;Samples;Min_cycle;Max_cycle;Signal;HPM_P1;HPM_P2
2023/10/11 14:16:07;;;;;;;;;;;13.30;70.50;;;12.32;64.07;97048.22;6117394;23;20255;-87
2023/10/11 14:23:05;;;;;;;;;;;13.30;70.50;;;12.31;64.25;97043.81;6142355;23;19926;-87
2023/10/11 14:27:01;;;;;;;;;;;;;;;;;;;;;
2023/10/11 14:34:32;;;;;;;;;;;13.20;70.30;;;12.31;64.33;97043.81;6126831;23;19950;-87
2023/10/11 14:41:14;;;;;;;;;;;13.30;70.50;;;12.32;64.16;97045.47;5985769;23;20488;-87
2023/10/11 14:44:44;;;;;;;;;;;13.30;70.60;;;12.33;64.27;97052.63;5999934;23;20261;-87
2023/10/11 14:47:29;;;;;;;;;;;13.30;70.60;;;12.30;64.32;97048.47;6048460;23;20022;-87
2023/10/11 14:51:10;;;;;;;;;;;13.20;70.60;;;12.33;64.32;97049.88;6047734;23;20353;-87
2023/10/11 14:54:29;;;;;;;;;;;13.30;70.70;;;12.33;64.22;97052.63;6050288;23;19922;-88
2023/10/11 14:57:25;;;;;;;;;;;13.20;70.50;;;12.31;64.44;97057.53;6165411;23;20263;-87
2023/10/11 15:00:17;;;;;;;;;;;13.20;70.60;;;12.31;64.64;97060.28;6141846;23;19928;-87
2023/10/11 15:03:03;;;;;;;;;;;13.20;70.70;;;12.28;64.32;97051.47;6118144;23;19921;-87
2023/10/11 15:05:57;;;;;;;;;;;13.20;70.70;;;12.25;64.45;97057.47;6123085;23;23542;-87
2023/10/11 15:08:44;;;;;;;;;;;13.20;70.70;;;12.27;64.38;97052.56;6141567;23;20255;-87
2023/10/11 15:15:55;;;;;;;;;;;;;;;;;;;;;
2023/10/11 15:18:55;;;;;;;;;;;13.20;70.90;;;12.25;64.77;97057.47;6140914;23;19924;-87
2023/10/11 15:25:02;;;;;;;;;;;13.20;71.00;;;12.23;64.61;97065.16;6162731;23;19924;-87
2023/10/11 15:28:06;;;;;;;;;;;13.20;71.10;;;12.23;64.73;97067.91;6140935;23;19925;-87
2023/10/11 15:31:10;;;;;;;;;;;13.10;71.20;;;12.20;64.94;97064.84;6143754;23;19920;-87
2023/10/11 15:34:10;;;;;;;;;;;;;;;;;;;;;
2023/10/11 15:37:03;;;;;;;;;;;13.10;71.20;;;12.18;64.91;97061.53;6118033;23;19920;-91
2023/10/11 15:40:26;;;;;;;;;;;13.10;71.20;;;12.19;64.97;97068.69;6134888;23;19927;-87
2023/10/11 15:42:58;;;;;;;;;;;13.10;71.30;;;12.17;64.78;97070.84;6116950;23;20350;-87
2023/10/11 15:45:47;;;;;;;;;;;;;;;;;;;;;
2023/10/11 15:48:22;;;;;;;;;;;13.10;71.40;;;12.16;65.22;97075.53;6160800;23;19927;-87
2023/10/11 15:50:59;;;;;;;;;;;13.10;71.80;;;12.14;64.95;97072.19;6141269;23;19927;-86
2023/10/11 15:53:32;;;;;;;;;;;13.10;71.50;;;12.16;65.21;97077.41;6165308;23;19920;-87
2023/10/11 15:56:11;;;;;;;;;;;13.10;71.70;;;12.15;65.99;97081.25;6141168;23;20343;-87
2023/10/11 15:58:46;;;;;;;;;;;13.10;72.50;;;12.15;66.04;97084.00;6116631;23;19920;-87
2023/10/11 16:01:17;;;;;;;;;;;13.10;72.60;;;12.13;66.01;97084.25;6141124;23;19921;-87
2023/10/11 16:03:59;;;;;;;;;;;13.00;72.60;;;12.09;66.24;97072.97;6175758;23;19920;-87
2023/10/11 16:06:30;;;;;;;;;;;13.00;72.70;;;12.10;66.14;97080.13;6141039;23;19927;-87
2023/10/11 16:09:11;;;;;;;;;;;13.00;72.80;;;12.06;66.27;97084.47;6164947;23;19921;-87
2023/10/11 16:11:48;;;;;;;;;;;13.00;72.90;;;12.05;66.40;97090.22;6141062;23;20344;-86
2023/10/11 16:14:19;;;;;;;;;;;12.90;72.90;;;12.00;66.36;97081.94;6141215;23;19924;-87
2023/10/11 16:17:02;;;;;;;;;;;12.90;73.00;;;11.97;66.24;97078.59;6175531;23;20374;-87
2023/10/11 16:20:02;;;;;;;;;;;;;;;;;;;;;
2023/10/11 16:23:29;;;;;;;;;;;12.90;73.00;;;11.93;66.71;97093.91;6152194;23;19947;-87
2023/10/11 16:35:01;;;;;;;;;;;;;;;;;;;;;
2023/10/11 16:44:53;;;;;;;;;;;12.80;72.80;;;11.91;66.10;97117.19;6176767;23;19943;-87
2023/10/11 16:48:13;;;;;;;;;;;12.80;73.60;;;11.88;66.00;97107.56;6195022;23;19972;-87
2023/10/11 16:50:45;;;;;;;;;;;12.80;72.70;;;11.85;66.06;97110.81;6137974;23;19927;-87
2023/10/11 16:56:29;;;;;;;;;;;12.80;72.70;;;11.84;66.12;97116.56;6145683;23;19927;-87
2023/10/11 16:58:58;;;;;;;;;;;12.80;72.80;;;11.82;66.11;97109.44;6170827;23;19927;-87
2023/10/11 17:01:44;;;;;;;;;;;12.80;72.60;;;11.86;66.11;97128.13;6171937;23;19930;-87
2023/10/11 17:04:29;;;;;;;;;;;12.80;72.60;;;11.82;66.05;97125.03;6171711;23;19920;-87
2023/10/11 17:07:25;;;;;;;;;;;12.80;72.60;;;11.86;65.93;97123.44;6171728;23;19920;-87
2023/10/11 17:10:09;;;;;;;;;;;12.80;72.60;;;11.83;65.93;97121.22;6195379;23;19927;-87
2023/10/11 17:12:45;;;;;;;;;;;12.80;72.70;;;11.83;65.77;97121.22;6172126;23;19927;-87
2023/10/11 17:15:16;;;;;;;;;;;12.70;72.40;;;11.82;65.91;97119.56;6171863;23;19920;-87
2023/10/11 17:17:48;;;;;;;;;;;12.70;72.40;;;11.78;65.61;97129.41;6171742;23;20343;-87
2023/10/11 17:20:21;;;;;;;;;;;12.70;72.40;;;11.78;66.04;97134.88;6147097;23;19920;-87
2023/10/11 17:22:54;;;;;;;;;;;12.70;72.60;;;11.72;66.15;97125.78;6171639;23;19920;-87
2023/10/11 17:25:31;;;;;;;;;;;12.70;72.70;;;11.75;65.95;97125.22;6147395;23;19920;-87
2023/10/11 17:28:04;;;;;;;;;;;12.70;72.70;;;11.75;66.11;97118.94;6147184;23;19920;-87
2023/10/11 17:30:41;;;;;;;;;;;12.70;72.80;;;11.76;66.33;97115.91;6171825;23;20343;-87
2023/10/11 17:33:16;;;;;;;;;;;12.70;72.80;;;11.77;66.22;97116.78;6171654;23;19927;-87
2023/10/11 17:35:47;;;;;;;;;;;12.70;72.80;;;11.76;65.96;97110.44;6147071;23;19920;-87
2023/10/11 17:38:30;;;;;;;;;;;12.70;72.80;;;11.79;66.19;97117.34;6172554;23;19920;-87
2023/10/11 17:41:09;;;;;;;;;;;12.70;72.80;;;11.76;66.09;97118.66;6195310;23;19924;-87
2023/10/11 17:43:48;;;;;;;;;;;12.70;72.90;;;11.73;65.98;97119.19;6196304;23;19920;-87
2023/10/11 17:46:18;;;;;;;;;;;12.70;72.90;;;11.76;66.25;97120.59;6147121;23;20336;-86
2023/10/11 17:48:52;;;;;;;;;;;12.70;72.90;;;11.73;66.37;97115.63;6171379;23;19927;-87
2023/10/11 17:51:31;;;;;;;;;;;12.70;72.90;;;11.72;66.28;97109.31;6171911;23;19927;-87
2023/10/11 17:54:22;;;;;;;;;;;12.60;72.90;;;11.72;66.55;97113.94;6148750;23;19924;-87
2023/10/11 17:57:30;;;;;;;;;;;12.60;72.90;;;11.73;66.34;97115.63;6196769;23;19920;-87
2023/10/11 18:00:36;;;;;;;;;;;;;;;;;;;;;
2023/10/11 18:03:11;;;;;;;;;;;12.60;73.10;;;11.74;66.47;97122.75;6170613;23;20255;-87
2023/10/11 18:05:57;;;;;;;;;;;12.60;73.10;;;11.74;66.48;97122.75;6171936;23;19919;-87
2023/10/11 18:11:41;;;;;;;;;;;12.60;73.20;;;11.77;66.49;97122.25;6169059;23;19940;-87
2023/10/11 18:14:39;;;;;;;;;;;12.70;73.30;;;11.76;66.58;97120.59;6171481;23;19920;-87
2023/10/11 18:17:18;;;;;;;;;;;12.70;73.30;;;11.77;66.37;97122.25;6171518;23;19920;-87
2023/10/11 18:20:27;;;;;;;;;;;12.70;73.30;;;11.79;66.44;97125.56;6197429;23;19920;-87
2023/10/11 18:23:21;;;;;;;;;;;12.70;73.20;;;11.78;66.57;97118.44;6147438;23;19924;-87
2023/10/11 18:26:32;;;;;;;;;;;12.70;73.30;;;11.78;66.81;97123.91;6171212;23;20258;-87
2023/10/11 18:29:52;;;;;;;;;;;12.70;73.20;;;11.79;66.76;97118.16;6150356;23;19920;-87
2023/10/11 18:36:10;;;;;;;;;;;12.70;73.30;;;11.79;66.53;97126.41;6171224;23;20358;-87
2023/10/11 18:39:00;;;;;;;;;;;12.70;73.30;;;11.77;66.65;97130.47;6170908;23;19927;-87
2023/10/11 18:42:03;;;;;;;;;;;12.70;73.30;;;11.78;66.72;97123.91;6166899;23;19947;-87
2023/10/11 18:48:35;;;;;;;;;;;12.70;73.60;;;11.74;67.10;97131.00;6172303;23;19920;-87
2023/10/11 18:51:43;;;;;;;;;;;12.70;73.60;;;11.75;66.90;97119.75;6147006;23;19927;-87
2023/10/11 19:01:27;;;;;;;;;;;12.70;73.70;;;11.76;67.01;97129.63;6053105;23;20026;-87
2023/10/11 19:08:14;;;;;;;;;;;12.60;73.80;;;11.69;67.19;97119.94;6170201;23;19920;-87
2023/10/11 19:11:28;;;;;;;;;;;;;;;;;;;;;
2023/10/11 19:14:18;;;;;;;;;;;12.50;74.10;;;11.69;67.56;97130.91;6147637;23;19920;-87
2023/10/11 19:44:54;;;;;;;;;;;12.60;74.30;;;11.70;67.83;97110.63;5926381;23;19965;-87
